PDT3366 KTXK-KDFW
Flight info
| Callsign | PDT3366 |
|---|---|
| Flight time | N/A |
| Altitude | 24000 |
| Route | DCT RRONY BRDJE5 |
| Aircraft | E145/M-SDFGIRW/S |
Departure
| Time | 2026-04-29 22:30 |
|---|---|
| Airport | Texarkana Regional Airport (Webb Field) (KTXK) |
Arrival
| Time | N/A |
|---|---|
| Airport | Dallas Fort Worth International Airport (KDFW) |
| Time | Latitude | Longitude | Altitude | Speed | Heading |
|---|---|---|---|---|---|
| 2026-04-29 22:06 | 33.45597 | -93.99348 | 384 ft | 0 kts | 297° |
| 2026-04-29 22:10 | 33.45598 | -93.99352 | 384 ft | 0 kts | 283° |
| 2026-04-29 22:10 | 33.45593 | -93.99363 | 383 ft | 9 kts | 229° |
| 2026-04-29 22:10 | 33.45542 | -93.99381 | 382 ft | 1 kts | 150° |
| 2026-04-29 22:11 | 33.45541 | -93.99380 | 382 ft | 0 kts | 139° |
| 2026-04-29 22:11 | 33.45536 | -93.99344 | 382 ft | 1 kts | 73° |
| 2026-04-29 22:11 | 33.45606 | -93.99296 | 384 ft | 19 kts | 24° |
| 2026-04-29 22:11 | 33.45707 | -93.99260 | 386 ft | 12 kts | 336° |
| 2026-04-29 22:12 | 33.45774 | -93.99301 | 388 ft | 9 kts | 323° |
| 2026-04-29 22:12 | 33.45819 | -93.99333 | 388 ft | 7 kts | 330° |
| 2026-04-29 22:12 | 33.45855 | -93.99366 | 389 ft | 7 kts | 316° |
| 2026-04-29 22:12 | 33.45893 | -93.99410 | 389 ft | 8 kts | 319° |
| 2026-04-29 22:13 | 33.45942 | -93.99421 | 390 ft | 7 kts | 20° |
| 2026-04-29 22:13 | 33.45979 | -93.99378 | 390 ft | 9 kts | 59° |
| 2026-04-29 22:13 | 33.45939 | -93.99279 | 390 ft | 0 kts | 135° |
| 2026-04-29 22:29 | 33.45841 | -93.99162 | 388 ft | 56 kts | 135° |
| 2026-04-29 22:29 | 33.45384 | -93.98621 | 387 ft | 125 kts | 135° |
| 2026-04-29 22:29 | 33.44807 | -93.97929 | 523 ft | 0 kts | 131° |
| 2026-04-29 22:30 | 33.44133 | -93.97007 | 1291 ft | 160 kts | 126° |
| 2026-04-29 22:30 | 33.44080 | -93.96930 | 1374 ft | 160 kts | 126° |